createdAt,value
2023-01-17T00:00:13.401Z,99.90
2023-01-17T00:02:58.760Z,99.90
2023-01-17T00:06:02.533Z,99.90
2023-01-17T00:09:06.683Z,99.90
2023-01-17T00:11:52.076Z,99.90
2023-01-17T00:14:37.110Z,99.90
2023-01-17T00:17:22.765Z,99.90
2023-01-17T00:20:27.139Z,99.90
2023-01-17T00:23:36.022Z,99.90
2023-01-17T00:26:21.243Z,99.90
2023-01-17T00:29:06.267Z,99.90
2023-01-17T00:31:51.197Z,99.90
2023-01-17T00:34:36.377Z,99.90
2023-01-17T00:37:21.232Z,99.90
2023-01-17T00:40:06.527Z,99.90
2023-01-17T00:42:51.867Z,99.90
2023-01-17T00:45:55.692Z,99.90
2023-01-17T00:48:59.723Z,99.90
2023-01-17T00:52:03.570Z,99.90
2023-01-17T00:55:07.432Z,99.90
2023-01-17T00:58:11.711Z,99.90
2023-01-17T01:01:15.987Z,99.90
2023-01-17T01:04:19.903Z,99.90
2023-01-17T01:07:23.804Z,99.90
2023-01-17T01:10:27.859Z,99.90
2023-01-17T01:13:32.049Z,99.90
2023-01-17T01:16:36.108Z,99.90
2023-01-17T01:19:39.956Z,99.90
2023-01-17T01:22:44.229Z,99.90
2023-01-17T01:25:48.290Z,99.90
2023-01-17T01:28:52.222Z,99.90
2023-01-17T01:31:56.299Z,99.90
2023-01-17T01:34:41.630Z,99.90
2023-01-17T01:37:26.630Z,99.90
2023-01-17T01:40:12.085Z,99.90
2023-01-17T01:42:58.418Z,99.90
2023-01-17T01:45:46.778Z,99.90
2023-01-17T01:48:36.779Z,99.90
2023-01-17T01:51:25.047Z,99.90
2023-01-17T01:54:32.261Z,99.90
2023-01-17T01:57:18.738Z,99.90
2023-01-17T02:00:16.373Z,99.90
2023-01-17T02:03:04.561Z,99.90
2023-01-17T02:05:49.671Z,99.90
2023-01-17T02:08:35.211Z,99.90
2023-01-17T02:11:21.527Z,99.90
2023-01-17T02:14:07.106Z,99.90
2023-01-17T02:16:52.277Z,99.90
2023-01-17T02:19:48.184Z,99.90
2023-01-17T02:22:36.610Z,99.90
2023-01-17T02:25:36.823Z,99.90
2023-01-17T02:28:42.109Z,99.90
2023-01-17T02:31:34.093Z,99.90
2023-01-17T02:34:24.713Z,99.90
2023-01-17T02:37:17.300Z,99.90
2023-01-17T02:40:12.510Z,99.90
2023-01-17T02:43:02.599Z,99.90
2023-01-17T02:59:45.742Z,99.90
2023-01-17T03:02:34.798Z,99.90
2023-01-17T03:05:41.370Z,99.90
2023-01-17T03:08:27.468Z,99.90
2023-01-17T03:11:12.912Z,99.90
2023-01-17T03:13:58.270Z,99.90
2023-01-17T03:16:43.680Z,99.90
2023-01-17T03:19:29.687Z,99.90
2023-01-17T03:22:15.073Z,99.90
2023-01-17T03:25:00.030Z,99.90
2023-01-17T03:27:45.203Z,99.90
2023-01-17T03:30:30.222Z,99.90
2023-01-17T03:33:16.513Z,99.90
2023-01-17T03:36:01.865Z,99.90
2023-01-17T03:38:46.907Z,99.90
2023-01-17T03:41:32.035Z,99.90
2023-01-17T03:44:17.006Z,99.90
2023-01-17T03:47:02.172Z,99.90
2023-01-17T03:49:47.242Z,99.90
2023-01-17T03:52:32.540Z,99.90
2023-01-17T03:55:18.177Z,99.90
2023-01-17T03:58:03.318Z,99.90
2023-01-17T04:00:48.454Z,99.90
2023-01-17T04:03:33.442Z,99.90
2023-01-17T04:06:18.549Z,99.90
2023-01-17T04:09:03.629Z,99.90
2023-01-17T04:11:50.874Z,99.90
2023-01-17T04:14:36.450Z,99.90
2023-01-17T04:17:21.538Z,99.90
2023-01-17T04:20:06.842Z,99.90
2023-01-17T04:22:52.148Z,99.90
2023-01-17T04:25:37.299Z,99.90
2023-01-17T04:28:22.216Z,99.90
2023-01-17T04:31:07.422Z,99.90
2023-01-17T04:33:52.484Z,99.90
2023-01-17T04:36:37.959Z,99.90
2023-01-17T04:39:23.140Z,99.90
2023-01-17T04:42:08.034Z,99.90
2023-01-17T04:47:38.567Z,99.90
2023-01-17T04:50:23.634Z,99.90
2023-01-17T04:53:09.010Z,99.90
2023-01-17T04:55:54.104Z,99.90
2023-01-17T04:58:39.300Z,99.90
2023-01-17T05:01:24.337Z,99.90
2023-01-17T05:04:09.821Z,99.90
2023-01-17T05:06:55.060Z,99.90
2023-01-17T05:09:40.021Z,99.90
2023-01-17T05:12:25.281Z,99.90
2023-01-17T05:15:10.302Z,99.90
2023-01-17T05:17:55.580Z,99.90
2023-01-17T05:20:41.341Z,99.90
2023-01-17T05:23:26.706Z,99.90
2023-01-17T05:26:11.960Z,99.90
2023-01-17T05:28:56.990Z,99.90
2023-01-17T05:31:42.715Z,99.90
2023-01-17T05:34:27.909Z,99.90
2023-01-17T05:37:12.950Z,99.90
2023-01-17T05:39:57.818Z,99.90
2023-01-17T05:42:46.589Z,99.90
2023-01-17T05:45:32.237Z,99.90
2023-01-17T05:48:17.197Z,99.90
2023-01-17T05:51:02.333Z,99.90
2023-01-17T05:53:47.415Z,99.90
2023-01-17T05:56:33.122Z,99.90
2023-01-17T05:59:28.574Z,99.90
2023-01-17T06:02:17.166Z,99.90
2023-01-17T06:05:03.540Z,99.90
2023-01-17T06:07:48.971Z,99.90
2023-01-17T06:10:34.222Z,99.90
2023-01-17T06:13:21.888Z,99.90
2023-01-17T06:16:07.192Z,99.90
2023-01-17T06:18:52.542Z,99.90
2023-01-17T06:21:37.525Z,99.90
2023-01-17T06:24:22.683Z,99.90
2023-01-17T06:27:10.784Z,99.90
2023-01-17T06:29:55.734Z,99.90
2023-01-17T06:32:40.758Z,99.90
2023-01-17T06:35:25.723Z,99.90
2023-01-17T06:38:10.887Z,99.90
2023-01-17T06:40:58.295Z,99.90
2023-01-17T06:43:43.591Z,99.90
2023-01-17T06:46:28.710Z,99.90
2023-01-17T06:49:14.054Z,99.90
2023-01-17T06:51:59.399Z,99.90
2023-01-17T06:54:45.149Z,99.90
2023-01-17T06:57:30.730Z,99.90
2023-01-17T07:00:16.399Z,99.90
2023-01-17T07:03:01.850Z,99.90
2023-01-17T07:05:47.148Z,99.90
2023-01-17T07:08:32.759Z,99.90
2023-01-17T07:11:18.359Z,99.90
2023-01-17T07:14:03.601Z,99.90
2023-01-17T07:16:49.984Z,99.90
2023-01-17T07:19:35.047Z,99.90
2023-01-17T07:22:20.196Z,99.90
2023-01-17T07:25:05.417Z,99.90
2023-01-17T07:27:53.684Z,99.90
2023-01-17T07:30:39.132Z,99.90
2023-01-17T07:33:24.129Z,99.90
2023-01-17T07:36:09.861Z,99.90
2023-01-17T07:38:55.683Z,99.90
2023-01-17T07:41:41.433Z,99.90
2023-01-17T07:44:26.506Z,99.90
2023-01-17T07:47:11.675Z,99.90
2023-01-17T07:49:56.867Z,99.90
2023-01-17T07:52:41.906Z,99.90
2023-01-17T07:55:27.399Z,99.90
2023-01-17T07:58:12.363Z,99.90
2023-01-17T08:01:04.800Z,99.90
2023-01-17T08:03:50.983Z,99.90
2023-01-17T08:06:37.088Z,99.90
2023-01-17T08:09:22.191Z,99.90
2023-01-17T08:12:07.270Z,99.90
2023-01-17T08:14:52.137Z,99.90
2023-01-17T08:17:37.213Z,99.90
2023-01-17T08:20:22.210Z,99.90
2023-01-17T08:23:07.162Z,99.90
2023-01-17T08:25:52.315Z,99.90
2023-01-17T08:28:37.331Z,99.90
2023-01-17T08:31:22.578Z,99.90
2023-01-17T08:34:07.532Z,99.90
2023-01-17T08:36:53.784Z,99.90
2023-01-17T08:39:39.186Z,99.90
2023-01-17T08:42:24.258Z,99.90
2023-01-17T08:45:10.360Z,99.90
2023-01-17T08:47:57.338Z,99.90
2023-01-17T08:50:42.730Z,99.90
2023-01-17T08:53:28.046Z,99.90
2023-01-17T08:56:13.298Z,99.90
2023-01-17T08:58:58.656Z,99.90
2023-01-17T09:01:45.825Z,99.90
2023-01-17T09:04:31.079Z,99.90
2023-01-17T09:07:17.240Z,99.90
2023-01-17T09:10:02.953Z,99.90
2023-01-17T09:12:48.097Z,99.90
2023-01-17T09:15:32.947Z,99.90
2023-01-17T09:18:17.927Z,99.90
2023-01-17T09:21:10.326Z,99.90
2023-01-17T09:23:55.909Z,99.90
2023-01-17T09:26:41.155Z,99.90
2023-01-17T09:29:26.164Z,99.90
2023-01-17T09:32:11.226Z,99.90
2023-01-17T09:35:00.813Z,99.90
2023-01-17T09:37:49.360Z,99.90
2023-01-17T09:40:35.875Z,99.90
2023-01-17T09:43:34.064Z,99.90
2023-01-17T09:46:22.730Z,99.90
2023-01-17T09:49:09.727Z,99.90
2023-01-17T09:51:54.699Z,99.90
2023-01-17T09:54:40.899Z,99.90
2023-01-17T09:57:36.395Z,99.90
2023-01-17T10:00:21.376Z,99.90
2023-01-17T10:03:09.906Z,99.90
2023-01-17T10:05:59.728Z,99.90
2023-01-17T10:08:45.101Z,99.90
2023-01-17T10:11:43.047Z,99.90
2023-01-17T10:14:46.522Z,99.90
2023-01-17T10:17:36.385Z,99.90
2023-01-17T10:20:39.733Z,99.90
2023-01-17T10:23:43.816Z,99.90
2023-01-17T10:26:29.311Z,99.90
2023-01-17T10:29:16.691Z,99.90
2023-01-17T10:32:02.511Z,99.90
2023-01-17T10:34:49.913Z,99.90
2023-01-17T10:37:40.251Z,99.90
2023-01-17T10:40:32.681Z,99.90
2023-01-17T10:43:37.636Z,99.90
2023-01-17T10:46:28.578Z,99.90
2023-01-17T10:49:15.487Z,99.90
2023-01-17T10:52:09.847Z,99.90
2023-01-17T10:55:04.933Z,99.90
2023-01-17T10:57:50.514Z,99.90
2023-01-17T11:00:39.987Z,99.90
2023-01-17T11:03:25.729Z,99.90
2023-01-17T11:06:23.972Z,99.90
2023-01-17T11:09:11.832Z,99.90
2023-01-17T11:11:56.759Z,99.90
2023-01-17T11:14:49.320Z,99.90
2023-01-17T11:17:41.426Z,99.90
2023-01-17T11:20:34.999Z,99.90
2023-01-17T11:23:22.378Z,99.60
2023-01-17T11:26:10.194Z,99.10
2023-01-17T11:29:14.134Z,98.60
2023-01-17T11:32:18.076Z,98.70
2023-01-17T11:35:12.462Z,97.20
2023-01-17T11:38:14.572Z,97.00
2023-01-17T11:41:20.189Z,95.80
2023-01-17T11:44:22.685Z,96.40
2023-01-17T11:47:08.792Z,95.90
2023-01-17T11:49:55.239Z,96.10
2023-01-17T11:52:40.295Z,96.20
2023-01-17T11:55:25.940Z,95.30
2023-01-17T11:58:14.297Z,93.80
2023-01-17T12:01:22.772Z,92.20
2023-01-17T12:04:22.720Z,93.20
2023-01-17T12:07:17.161Z,92.50
2023-01-17T12:10:08.831Z,93.00
2023-01-17T12:13:36.830Z,92.60
2023-01-17T12:16:33.913Z,91.50
2023-01-17T12:19:34.543Z,92.10
2023-01-17T12:22:33.689Z,91.30
2023-01-17T12:25:32.658Z,92.30
2023-01-17T12:28:26.699Z,91.70
2023-01-17T12:31:26.394Z,91.80
2023-01-17T12:34:17.406Z,90.20
2023-01-17T12:37:18.933Z,89.20
2023-01-17T12:40:15.099Z,90.60
2023-01-17T12:43:03.203Z,91.00
2023-01-17T12:45:49.381Z,88.30
2023-01-17T12:48:36.344Z,86.60
2023-01-17T12:51:27.583Z,87.80
2023-01-17T12:54:19.408Z,90.20
2023-01-17T12:57:08.986Z,90.50
2023-01-17T13:00:01.758Z,90.90
2023-01-17T13:02:53.010Z,91.70
2023-01-17T13:05:38.224Z,91.20
2023-01-17T13:08:26.859Z,91.40
2023-01-17T13:11:15.899Z,92.00
2023-01-17T13:14:01.838Z,92.20
2023-01-17T13:17:00.941Z,92.20
2023-01-17T13:19:57.608Z,92.40
2023-01-17T13:22:43.564Z,92.50
2023-01-17T13:25:34.876Z,91.50
2023-01-17T13:28:23.451Z,91.80
2023-01-17T13:31:31.265Z,92.70
2023-01-17T13:34:30.922Z,93.50
2023-01-17T13:37:22.111Z,93.30
2023-01-17T13:40:28.038Z,92.60
2023-01-17T13:43:18.173Z,91.10
2023-01-17T13:46:03.977Z,90.50
2023-01-17T13:49:09.154Z,90.20
2023-01-17T13:52:03.463Z,89.00
2023-01-17T13:54:52.061Z,88.00
2023-01-17T13:57:46.084Z,88.70
2023-01-17T14:00:47.775Z,90.30
2023-01-17T14:03:51.820Z,88.10
2023-01-17T14:06:40.491Z,87.00
2023-01-17T14:09:44.281Z,86.00
2023-01-17T14:12:32.595Z,86.80
2023-01-17T14:15:27.191Z,84.80
2023-01-17T14:18:32.883Z,82.50
2023-01-17T14:21:22.859Z,83.70
2023-01-17T14:24:10.977Z,84.50
2023-01-17T14:27:14.163Z,85.70
2023-01-17T14:30:00.058Z,82.20
2023-01-17T14:33:08.571Z,83.20
2023-01-17T14:36:04.370Z,82.00
2023-01-17T14:38:50.621Z,84.90
2023-01-17T14:41:35.722Z,83.00
2023-01-17T14:44:21.174Z,84.50
2023-01-17T14:47:06.704Z,84.90
2023-01-17T14:50:08.811Z,84.10
2023-01-17T14:53:08.247Z,84.80
2023-01-17T14:55:56.417Z,85.90
2023-01-17T14:58:41.462Z,86.70
2023-01-17T15:01:26.731Z,86.90
2023-01-17T15:04:24.000Z,88.30
2023-01-17T15:07:14.468Z,89.20
2023-01-17T15:09:59.387Z,89.50
2023-01-17T15:12:46.534Z,89.50
2023-01-17T15:15:35.138Z,89.40
2023-01-17T15:18:24.562Z,89.70
2023-01-17T15:21:13.262Z,89.40
2023-01-17T15:24:08.331Z,88.90
2023-01-17T15:26:53.490Z,89.50
2023-01-17T15:29:39.749Z,90.60
2023-01-17T15:32:31.227Z,90.50
2023-01-17T15:35:20.529Z,89.90
2023-01-17T15:38:05.701Z,90.50
2023-01-17T15:40:50.594Z,90.50
2023-01-17T15:43:35.909Z,90.30
2023-01-17T15:46:22.841Z,91.40
2023-01-17T15:49:14.651Z,90.60
2023-01-17T15:52:01.664Z,90.40
2023-01-17T15:54:53.241Z,90.70
2023-01-17T15:57:38.771Z,90.30
2023-01-17T16:00:37.334Z,90.40
2023-01-17T16:03:31.296Z,90.80
2023-01-17T16:06:35.181Z,90.80
2023-01-17T16:09:22.144Z,91.10
2023-01-17T16:12:07.270Z,91.10
2023-01-17T16:15:10.856Z,90.70
2023-01-17T16:18:01.208Z,91.60
2023-01-17T16:20:59.663Z,91.00
2023-01-17T16:23:46.014Z,91.30
2023-01-17T16:26:31.089Z,90.80
2023-01-17T16:29:16.236Z,91.20
2023-01-17T16:32:08.502Z,91.20
2023-01-17T16:34:53.711Z,91.60
2023-01-17T16:37:38.763Z,91.90
2023-01-17T16:40:25.131Z,91.40
2023-01-17T16:43:13.985Z,92.30
2023-01-17T16:45:58.979Z,91.80
2023-01-17T16:48:44.147Z,91.30
2023-01-17T16:51:29.043Z,91.90
2023-01-17T16:54:14.117Z,92.10
2023-01-17T16:56:59.151Z,92.40
2023-01-17T16:59:50.653Z,99.90
2023-01-17T17:02:38.468Z,97.80
2023-01-17T17:05:25.115Z,95.80
2023-01-17T17:08:10.105Z,95.10
2023-01-17T17:10:55.793Z,95.80
2023-01-17T17:13:41.491Z,94.20
2023-01-17T17:16:29.824Z,94.60
2023-01-17T17:19:15.197Z,94.80
2023-01-17T17:22:01.795Z,95.30
2023-01-17T17:24:46.947Z,95.20
2023-01-17T17:27:32.237Z,95.40
2023-01-17T17:30:18.160Z,95.70
2023-01-17T17:33:04.629Z,95.80
2023-01-17T17:35:49.627Z,95.90
2023-01-17T17:38:35.034Z,95.00
2023-01-17T17:41:21.494Z,96.30
2023-01-17T17:44:06.540Z,95.20
2023-01-17T17:46:51.804Z,95.30
2023-01-17T17:49:36.796Z,95.20
2023-01-17T17:52:22.062Z,96.20
2023-01-17T17:55:07.269Z,96.30
2023-01-17T17:57:52.828Z,96.30
2023-01-17T18:00:38.228Z,95.40
2023-01-17T18:03:23.321Z,95.30
2023-01-17T18:06:09.891Z,95.40
2023-01-17T18:08:55.063Z,95.40
2023-01-17T18:11:41.164Z,95.40
2023-01-17T18:14:26.573Z,95.30
2023-01-17T18:17:11.794Z,95.90
2023-01-17T18:19:56.808Z,96.30
2023-01-17T18:22:41.918Z,95.40
2023-01-17T18:25:26.964Z,95.90
2023-01-17T18:28:12.132Z,96.10
2023-01-17T18:30:57.181Z,95.40
2023-01-17T18:33:42.228Z,96.20
2023-01-17T18:36:30.386Z,95.90
2023-01-17T18:39:17.022Z,96.80
2023-01-17T18:42:02.306Z,96.20
2023-01-17T18:44:47.243Z,95.40
2023-01-17T18:47:32.423Z,95.50
2023-01-17T18:50:17.498Z,95.80
2023-01-17T18:53:02.582Z,94.90
2023-01-17T18:55:57.058Z,95.40
2023-01-17T18:58:43.422Z,95.70
2023-01-17T19:01:29.763Z,96.00
2023-01-17T19:04:16.006Z,97.70
2023-01-17T19:07:01.195Z,98.10
2023-01-17T19:09:46.059Z,98.90
2023-01-17T19:12:31.055Z,97.80
2023-01-17T19:15:16.073Z,95.40
2023-01-17T19:18:01.216Z,96.60
2023-01-17T19:20:46.412Z,96.30
2023-01-17T19:23:31.317Z,96.10
2023-01-17T19:26:27.323Z,96.50
2023-01-17T19:29:12.457Z,95.50
2023-01-17T19:31:57.665Z,96.20
2023-01-17T19:34:42.793Z,96.60
2023-01-17T19:37:27.984Z,95.80
2023-01-17T19:40:13.812Z,95.20
2023-01-17T19:42:59.227Z,95.00
2023-01-17T19:45:44.673Z,95.20
2023-01-17T19:48:29.767Z,95.30
2023-01-17T19:51:15.922Z,96.00
2023-01-17T19:54:01.710Z,95.90
2023-01-17T19:56:47.316Z,95.70
2023-01-17T19:59:32.244Z,96.00
2023-01-17T20:02:17.424Z,96.20
2023-01-17T20:05:02.852Z,96.00
2023-01-17T20:07:47.853Z,96.00
2023-01-17T20:10:33.027Z,96.30
2023-01-17T20:13:18.062Z,96.60
2023-01-17T20:16:04.080Z,96.20
2023-01-17T20:18:49.300Z,96.20
2023-01-17T20:21:34.710Z,96.20
2023-01-17T20:24:19.646Z,96.40
2023-01-17T20:27:04.744Z,96.70
2023-01-17T20:29:49.828Z,96.50
2023-01-17T20:32:34.871Z,96.80
2023-01-17T20:35:19.978Z,96.60
2023-01-17T20:38:07.451Z,96.90
2023-01-17T20:40:55.505Z,96.70
2023-01-17T20:43:41.154Z,96.70
2023-01-17T20:46:27.323Z,97.00
2023-01-17T20:49:14.997Z,96.90
2023-01-17T20:52:00.921Z,96.80
2023-01-17T20:54:46.702Z,97.00
2023-01-17T20:57:32.458Z,97.10
2023-01-17T21:00:17.656Z,97.60
2023-01-17T21:04:25.685Z,98.60
2023-01-17T21:07:11.754Z,97.40
2023-01-17T21:09:57.424Z,97.60
2023-01-17T21:12:42.525Z,97.40
2023-01-17T21:15:27.835Z,97.70
2023-01-17T21:18:14.564Z,97.40
2023-01-17T21:21:05.653Z,97.50
2023-01-17T21:23:52.660Z,98.10
2023-01-17T21:26:39.805Z,97.80
2023-01-17T21:29:28.968Z,97.70
2023-01-17T21:32:14.147Z,97.80
2023-01-17T21:34:59.446Z,97.50
2023-01-17T21:37:49.318Z,97.40
2023-01-17T21:40:34.727Z,97.80
2023-01-17T21:43:20.072Z,97.80
2023-01-17T21:46:05.669Z,97.90
2023-01-17T21:48:50.917Z,98.00
2023-01-17T21:52:05.678Z,98.00
2023-01-17T21:55:09.705Z,98.10
2023-01-17T21:58:13.535Z,98.20
2023-01-17T22:01:08.872Z,98.20
2023-01-17T22:03:59.776Z,98.30
2023-01-17T22:06:44.841Z,98.20
2023-01-17T22:09:30.189Z,98.00
2023-01-17T22:12:15.508Z,97.90
2023-01-17T22:15:00.861Z,97.80
2023-01-17T22:17:46.856Z,97.90
2023-01-17T22:20:32.532Z,98.10
2023-01-17T22:23:17.908Z,98.30
2023-01-17T22:26:11.781Z,98.20
2023-01-17T22:29:00.615Z,98.50
2023-01-17T22:31:46.007Z,98.40
2023-01-17T22:34:31.197Z,98.30
2023-01-17T22:37:16.559Z,98.50
2023-01-17T22:40:04.827Z,98.70
2023-01-17T22:42:49.934Z,98.60
2023-01-17T22:45:35.276Z,98.70
2023-01-17T22:48:20.665Z,98.50
2023-01-17T22:51:08.639Z,98.50
2023-01-17T22:53:57.716Z,98.50
2023-01-17T22:56:42.955Z,98.40
2023-01-17T22:59:28.191Z,98.40
2023-01-17T23:02:15.698Z,98.40
2023-01-17T23:05:01.721Z,98.80
2023-01-17T23:07:50.676Z,98.80
2023-01-17T23:10:55.936Z,98.80
2023-01-17T23:13:42.394Z,98.80
2023-01-17T23:16:46.937Z,99.00
2023-01-17T23:19:38.521Z,98.90
2023-01-17T23:22:26.889Z,99.30
2023-01-17T23:25:14.107Z,99.20
2023-01-17T23:28:11.345Z,99.10
2023-01-17T23:31:03.094Z,99.20
2023-01-17T23:33:49.117Z,99.30
2023-01-17T23:36:34.591Z,99.40
2023-01-17T23:39:19.822Z,99.50
2023-01-17T23:42:23.586Z,99.50
2023-01-17T23:45:10.159Z,99.50
2023-01-17T23:47:55.348Z,99.60
2023-01-17T23:50:44.092Z,99.60
2023-01-17T23:53:29.232Z,99.60
2023-01-17T23:56:20.264Z,99.80
2023-01-17T23:59:05.766Z,99.70
